Detall de PIREP

Printer-friendly versionPDF version

[2013/10/30 10:16:00]
Flight IATA:CT3215
Pilot Number:042
Company ICAO:CAT
Aircraft Type:B744/E
PAX:140
Departing Airport: EKCH
Destination Airport: LEPA
Alternate Airport:LEBL
Online: VATSIM
Route:NEXEN T503 MIC UN850 NATOR UN869 MILPA UN852 VERSO UL129 LUNIK
Flight Level:F370
No Slew and time accel
No pause
Crash detect
Detect pilot in Cockpit between each 30 and 45 minutes
10:16 Zero fuel Weight: 387863 Lbs, Fuel Weight: 320419 Lbs
10:16 VATSIM:EKCH 300950Z 24022KT 9999 FEW025 BKN054 11/08 Q1011 TEMPO SCT020CB
10:16 VATSIM:LEPA 301000Z 05018KT 020V080 9999 FEW030 19/06 Q1018 NOSIG
10:17 VOICE CATALONIAN
10:24 Parking Brakes off
10:35 Take-off
10:35 Take off Weight: 705671 Lbs
10:35 Wind: 240º @ 017 Knots Heading: 222º
10:35 POS N55º 35´ 57´´ E012º 36´ 51´´
10:35 Gear Up: 203 Knots
10:35 Flaps:2 at 203 Knots
10:35 Flaps:1 at 198 Knots
10:35 Flaps:0 at 201 Knots
10:50 Wind:240º@013 Knots Heading: 215º Ground Speed: 481 Knots Altitude 24419 ft
11:05 Wind:247º@013 Knots Heading: 202º Ground Speed: 532 Knots Altitude 31738 ft
11:20 Wind:217º@006 Knots Heading: 187º Ground Speed: 469 Knots Altitude 34343 ft
11:35 Wind:248º@000 Knots Heading: 191º Ground Speed: 521 Knots Altitude 33287 ft
11:50 Wind:045º@009 Knots Heading: 228º Ground Speed: 552 Knots Altitude 33287 ft
12:05 Wind:351º@014 Knots Heading: 194º Ground Speed: 558 Knots Altitude 33139 ft
12:20 Wind:337º@014 Knots Heading: 209º Ground Speed: 555 Knots Altitude 33139 ft
12:35 Wind:013º@015 Knots Heading: 176º Ground Speed: 442 Knots Altitude 21384 ft
12:42 Flaps:1 at 249 Knots
12:43 Flaps:2 at 209 Knots
12:50 Wind:048º@013 Knots Heading: 346º Ground Speed: 192 Knots Altitude 3005 ft
12:50 Gear Down: 183 Knots
12:50 Flaps:3 at 182 Knots
12:51 Flaps:4 at 177 Knots
12:51 Flaps:5 at 171 Knots
12:52 Flaps:6 at 165 Knots
12:54 TouchDown:Rate -86 ft/min Speed: 156 Knots
12:54 VATSIM:LEPA 301230Z 05014KT 010V070 9999 FEW030 19/07 Q1018 NOSIG
12:54 Land
12:54 Wind:048º@013 Knots
12:54 Heading: 058º
12:54 Flight Duration: 02:19
12:54 Landing Weight: 663186 Lbs
12:54 POS N39º 33´ 21´´ E002º 43´ 46´´
13:00 Parking brakes on
13:00 Block to Block Duration: 02:36
13:00 Final Fuel: 273968 Lbls
13:00 Spent Fuel: 46450 Lbls
13:00 Flight Length: 1107 NM
13:00 TOD Land Length: 1107 NM

Exportar CSV

Powered by Drupal - Modified by Danger4k